createdAt,value
2023-04-26T00:00:55.412Z,6.63
2023-04-26T00:03:23.378Z,6.40
2023-04-26T00:05:50.859Z,6.60
2023-04-26T00:08:17.936Z,7.15
2023-04-26T00:10:44.785Z,6.40
2023-04-26T00:13:11.863Z,6.55
2023-04-26T00:15:38.671Z,7.35
2023-04-26T00:18:06.094Z,8.15
2023-04-26T00:20:33.033Z,7.93
2023-04-26T00:22:59.971Z,8.93
2023-04-26T00:25:26.988Z,9.25
2023-04-26T00:27:53.859Z,8.75
2023-04-26T00:30:20.821Z,8.57
2023-04-26T00:32:48.114Z,9.07
2023-04-26T00:35:15.075Z,8.85
2023-04-26T00:37:42.356Z,8.65
2023-04-26T00:40:09.757Z,8.95
2023-04-26T00:42:37.984Z,8.53
2023-04-26T00:45:06.231Z,7.60
2023-04-26T00:47:33.596Z,7.77
2023-04-26T00:50:01.813Z,7.53
2023-04-26T00:52:29.558Z,7.88
2023-04-26T00:54:56.952Z,7.53
2023-04-26T00:57:24.076Z,7.47
2023-04-26T00:59:51.510Z,7.40
2023-04-26T01:02:19.013Z,6.38
2023-04-26T01:04:46.521Z,7.60
2023-04-26T01:07:13.368Z,6.55
2023-04-26T01:09:40.958Z,7.10
2023-04-26T01:12:09.109Z,7.65
2023-04-26T01:14:36.822Z,7.03
2023-04-26T01:17:04.025Z,7.25
2023-04-26T01:19:31.216Z,7.15
2023-04-26T01:21:58.287Z,7.30
2023-04-26T01:24:25.224Z,7.77
2023-04-26T01:26:52.246Z,6.78
2023-04-26T01:29:22.318Z,7.10
2023-04-26T01:31:49.795Z,7.43
2023-04-26T01:34:16.804Z,7.25
2023-04-26T01:36:46.327Z,7.40
2023-04-26T01:39:13.580Z,7.03
2023-04-26T01:41:40.690Z,7.40
2023-04-26T01:44:07.769Z,7.35
2023-04-26T01:46:34.763Z,6.88
2023-04-26T01:49:01.977Z,6.35
2023-04-26T01:51:30.241Z,6.75
2023-04-26T01:53:57.141Z,6.78
2023-04-26T01:56:25.226Z,6.70
2023-04-26T01:58:55.561Z,6.38
2023-04-26T02:01:23.607Z,6.78
2023-04-26T02:03:51.291Z,6.80
2023-04-26T02:06:19.762Z,6.72
2023-04-26T02:08:46.591Z,6.65
2023-04-26T02:11:13.519Z,6.93
2023-04-26T02:13:40.546Z,7.13
2023-04-26T02:16:07.901Z,7.28
2023-04-26T02:18:34.930Z,6.90
2023-04-26T02:21:01.946Z,6.97
2023-04-26T02:23:31.400Z,7.65
2023-04-26T02:25:58.244Z,7.13
2023-04-26T02:28:25.113Z,7.15
2023-04-26T02:30:56.739Z,7.47
2023-04-26T02:33:23.991Z,7.18
2023-04-26T02:35:50.923Z,7.05
2023-04-26T02:38:17.941Z,7.25
2023-04-26T02:40:45.519Z,6.97
2023-04-26T02:43:13.285Z,7.20
2023-04-26T02:45:43.975Z,7.20
2023-04-26T02:48:13.406Z,7.43
2023-04-26T02:50:40.350Z,7.33
2023-04-26T02:53:07.472Z,7.90
2023-04-26T02:55:34.406Z,7.38
2023-04-26T02:58:01.279Z,7.75
2023-04-26T03:00:28.635Z,7.30
2023-04-26T03:02:57.138Z,7.47
2023-04-26T03:05:24.528Z,7.00
2023-04-26T03:07:51.356Z,7.18
2023-04-26T03:10:18.457Z,7.50
2023-04-26T03:12:45.351Z,6.57
2023-04-26T03:15:12.489Z,7.45
2023-04-26T03:17:41.628Z,7.73
2023-04-26T03:20:09.074Z,7.60
2023-04-26T03:22:36.282Z,8.15
2023-04-26T03:25:04.216Z,8.32
2023-04-26T03:27:31.150Z,7.70
2023-04-26T03:29:58.098Z,7.88
2023-04-26T03:32:25.300Z,8.23
2023-04-26T03:34:52.295Z,8.23
2023-04-26T03:37:19.349Z,8.00
2023-04-26T03:39:53.846Z,7.75
2023-04-26T03:42:22.854Z,8.10
2023-04-26T03:44:49.756Z,7.47
2023-04-26T03:47:16.667Z,7.57
2023-04-26T03:49:43.592Z,7.40
2023-04-26T03:52:11.178Z,7.40
2023-04-26T03:54:38.165Z,7.30
2023-04-26T03:57:05.277Z,8.43
2023-04-26T03:59:32.219Z,7.82
2023-04-26T04:01:59.788Z,7.80
2023-04-26T04:04:26.982Z,8.10
2023-04-26T04:06:54.186Z,8.23
2023-04-26T04:09:21.061Z,7.30
2023-04-26T04:11:48.295Z,8.13
2023-04-26T04:14:15.163Z,7.78
2023-04-26T04:16:41.998Z,7.30
2023-04-26T04:19:09.177Z,7.82
2023-04-26T04:21:36.234Z,7.22
2023-04-26T04:24:04.101Z,7.85
2023-04-26T04:26:31.061Z,7.80
2023-04-26T04:29:08.604Z,8.15
2023-04-26T04:31:36.846Z,8.65
2023-04-26T04:34:03.998Z,8.00
2023-04-26T04:36:31.287Z,7.95
2023-04-26T04:38:58.188Z,7.57
2023-04-26T04:41:25.323Z,7.25
2023-04-26T04:43:54.241Z,6.82
2023-04-26T04:46:22.181Z,7.13
2023-04-26T04:48:49.726Z,6.80
2023-04-26T04:51:16.955Z,6.75
2023-04-26T04:53:44.448Z,6.93
2023-04-26T04:56:11.998Z,6.68
2023-04-26T04:58:39.055Z,6.60
2023-04-26T05:01:06.304Z,6.30
2023-04-26T05:03:45.872Z,6.30
2023-04-26T05:06:13.201Z,6.82
2023-04-26T05:08:40.089Z,5.70
2023-04-26T05:11:09.072Z,5.90
2023-04-26T05:13:36.588Z,6.20
2023-04-26T05:16:03.730Z,5.22
2023-04-26T05:18:30.682Z,5.95
2023-04-26T05:20:58.100Z,6.05
2023-04-26T05:23:25.908Z,5.50
2023-04-26T05:25:52.824Z,5.75
2023-04-26T05:28:45.936Z,5.75
2023-04-26T05:31:27.022Z,5.95
2023-04-26T05:34:20.067Z,5.90
2023-04-26T05:36:51.653Z,5.80
2023-04-26T05:39:20.599Z,6.45
2023-04-26T05:41:48.094Z,5.93
2023-04-26T05:44:15.617Z,5.47
2023-04-26T05:46:43.098Z,5.75
2023-04-26T05:49:10.618Z,5.72
2023-04-26T05:51:37.600Z,5.57
2023-04-26T05:54:05.126Z,5.20
2023-04-26T05:56:32.655Z,4.78
2023-04-26T05:58:59.586Z,4.45
2023-04-26T06:01:26.327Z,4.55
2023-04-26T06:03:55.927Z,4.30
2023-04-26T06:06:29.858Z,3.95
2023-04-26T06:08:56.977Z,4.28
2023-04-26T06:11:24.036Z,4.03
2023-04-26T06:13:51.207Z,4.30
2023-04-26T06:16:18.558Z,3.65
2023-04-26T06:18:45.402Z,4.20
2023-04-26T06:21:12.802Z,4.13
2023-04-26T06:23:39.683Z,3.65
2023-04-26T06:26:06.549Z,3.63
2023-04-26T06:28:33.466Z,3.60
2023-04-26T06:31:00.550Z,3.58
2023-04-26T06:33:27.702Z,2.72
2023-04-26T06:35:55.313Z,3.22
2023-04-26T06:38:22.177Z,2.97
2023-04-26T06:40:49.182Z,3.13
2023-04-26T06:43:17.306Z,3.42
2023-04-26T06:45:56.373Z,3.50
2023-04-26T06:48:23.498Z,4.00
2023-04-26T06:50:50.343Z,3.60
2023-04-26T06:53:17.220Z,3.50
2023-04-26T06:55:44.490Z,4.75
2023-04-26T06:58:11.401Z,3.70
2023-04-26T07:00:38.284Z,3.67
2023-04-26T07:03:05.480Z,3.40
2023-04-26T07:05:32.638Z,3.63
2023-04-26T07:07:59.499Z,3.88
2023-04-26T07:10:27.461Z,3.67
2023-04-26T07:12:54.702Z,3.67
2023-04-26T07:15:21.637Z,3.90
2023-04-26T07:17:48.648Z,4.22
2023-04-26T07:20:19.759Z,3.30
2023-04-26T07:22:47.353Z,3.15
2023-04-26T07:25:14.735Z,3.50
2023-04-26T07:27:41.995Z,3.90
2023-04-26T07:30:10.209Z,3.30
2023-04-26T07:32:37.744Z,3.33
2023-04-26T07:35:15.050Z,3.35
2023-04-26T07:37:43.915Z,3.42
2023-04-26T07:40:11.931Z,3.55
2023-04-26T07:42:38.826Z,3.90
2023-04-26T07:45:06.489Z,4.30
2023-04-26T07:47:33.365Z,3.13
2023-04-26T07:50:00.367Z,2.85
2023-04-26T07:52:27.300Z,2.60
2023-04-26T07:54:54.223Z,3.20
2023-04-26T07:57:20.974Z,2.60
2023-04-26T07:59:48.023Z,2.80
2023-04-26T08:02:14.896Z,2.28
2023-04-26T08:04:52.559Z,2.78
2023-04-26T08:07:19.904Z,3.28
2023-04-26T08:09:47.504Z,2.30
2023-04-26T08:12:14.566Z,2.67
2023-04-26T08:14:41.561Z,2.20
2023-04-26T08:17:12.170Z,1.90
2023-04-26T08:19:39.362Z,1.88
2023-04-26T08:22:06.408Z,2.10
2023-04-26T08:24:33.300Z,2.20
2023-04-26T08:27:00.334Z,1.40
2023-04-26T08:29:28.004Z,1.50
2023-04-26T08:31:55.434Z,1.23
2023-04-26T08:34:22.258Z,1.20
2023-04-26T08:36:49.452Z,1.30
2023-04-26T08:39:17.917Z,1.25
2023-04-26T08:41:52.358Z,1.60
2023-04-26T08:44:23.939Z,1.80
2023-04-26T08:47:14.146Z,1.23
2023-04-26T08:49:43.932Z,1.40
2023-04-26T08:52:13.430Z,1.30
2023-04-26T08:54:41.126Z,1.20
2023-04-26T08:57:08.867Z,1.40
2023-04-26T08:59:39.560Z,1.20
2023-04-26T09:02:07.572Z,1.70
2023-04-26T09:04:34.639Z,1.30
2023-04-26T09:07:04.586Z,1.60
2023-04-26T09:09:37.777Z,2.00
2023-04-26T09:12:08.010Z,1.70
2023-04-26T09:14:35.299Z,1.67
2023-04-26T09:17:02.426Z,1.25
2023-04-26T09:19:37.249Z,1.50
2023-04-26T09:22:04.903Z,1.40
2023-04-26T09:24:52.339Z,1.20
2023-04-26T09:27:19.955Z,1.10
2023-04-26T09:30:05.420Z,1.38
2023-04-26T09:32:46.064Z,1.27
2023-04-26T09:35:32.022Z,1.40
2023-04-26T09:38:18.528Z,1.40
2023-04-26T09:40:50.157Z,1.08
2023-04-26T09:43:21.883Z,1.48
2023-04-26T09:45:56.392Z,1.60
2023-04-26T09:48:34.657Z,1.90
2023-04-26T09:51:04.251Z,1.65
2023-04-26T09:53:39.179Z,1.83
2023-04-26T09:56:13.725Z,1.75
2023-04-26T09:58:46.769Z,1.80
2023-04-26T10:01:18.252Z,2.28
2023-04-26T10:03:46.871Z,1.80
2023-04-26T10:06:14.412Z,1.90
2023-04-26T10:08:41.419Z,1.80
2023-04-26T10:11:10.586Z,1.75
2023-04-26T10:13:38.228Z,2.10
2023-04-26T10:16:06.862Z,2.25
2023-04-26T10:18:34.035Z,2.05
2023-04-26T10:21:17.107Z,2.10
2023-04-26T10:23:44.795Z,1.80
2023-04-26T10:26:53.424Z,2.05
2023-04-26T10:30:07.465Z,1.90
2023-04-26T10:32:57.385Z,1.80
2023-04-26T10:35:30.601Z,2.13
2023-04-26T10:38:00.674Z,1.80
2023-04-26T10:40:28.963Z,1.88
2023-04-26T10:43:11.520Z,1.65
2023-04-26T10:45:39.712Z,1.65
2023-04-26T10:48:22.086Z,2.10
2023-04-26T10:51:13.156Z,1.75
2023-04-26T10:53:48.765Z,1.60
2023-04-26T10:56:27.772Z,1.70
2023-04-26T10:59:43.380Z,1.30
2023-04-26T11:02:17.444Z,1.20
2023-04-26T11:04:53.557Z,1.13
2023-04-26T11:07:39.156Z,1.52
2023-04-26T11:10:10.633Z,1.42
2023-04-26T11:12:41.713Z,1.27
2023-04-26T11:15:09.040Z,1.45
2023-04-26T11:17:39.123Z,1.33
2023-04-26T11:20:10.112Z,1.08
2023-04-26T11:22:41.771Z,1.45
2023-04-26T11:25:09.526Z,1.60
2023-04-26T11:27:36.484Z,1.45
2023-04-26T11:30:06.870Z,1.40
2023-04-26T11:32:33.701Z,1.48
2023-04-26T11:35:01.652Z,1.52
2023-04-26T11:37:28.478Z,1.38
2023-04-26T11:39:57.540Z,1.40
2023-04-26T11:42:27.361Z,1.45
2023-04-26T11:44:57.466Z,1.38
2023-04-26T11:47:26.056Z,1.58
2023-04-26T11:49:53.286Z,1.50
2023-04-26T11:52:20.332Z,1.40
2023-04-26T11:54:47.505Z,1.73
2023-04-26T11:57:18.496Z,1.60
2023-04-26T11:59:46.227Z,1.40
2023-04-26T12:02:13.369Z,1.70
2023-04-26T12:04:41.456Z,1.30
2023-04-26T12:07:08.724Z,1.50
2023-04-26T12:09:40.224Z,1.73
2023-04-26T12:12:07.445Z,1.35
2023-04-26T12:14:35.975Z,1.52
2023-04-26T12:17:04.551Z,1.70
2023-04-26T12:19:38.635Z,1.70
2023-04-26T12:22:06.985Z,1.80
2023-04-26T12:24:37.568Z,1.80
2023-04-26T12:27:07.054Z,1.88
2023-04-26T12:29:34.802Z,1.92
2023-04-26T12:32:02.654Z,1.60
2023-04-26T12:34:29.850Z,1.88
2023-04-26T12:36:56.748Z,1.73
2023-04-26T12:39:23.718Z,2.00
2023-04-26T12:41:50.762Z,1.98
2023-04-26T12:44:19.614Z,2.00
2023-04-26T12:46:48.415Z,1.92
2023-04-26T12:49:15.592Z,2.00
2023-04-26T12:51:46.140Z,2.10
2023-04-26T12:54:12.991Z,2.07
2023-04-26T12:56:44.032Z,2.10
2023-04-26T12:59:11.469Z,1.90
2023-04-26T13:01:38.381Z,2.10
2023-04-26T13:04:05.930Z,2.40
2023-04-26T13:06:33.387Z,2.10
2023-04-26T13:09:00.212Z,2.10
2023-04-26T13:11:27.258Z,1.73
2023-04-26T13:13:54.067Z,1.73
2023-04-26T13:16:20.986Z,1.65
2023-04-26T13:18:48.098Z,1.70
2023-04-26T13:21:14.880Z,1.80
2023-04-26T13:23:41.767Z,1.70
2023-04-26T13:26:08.780Z,1.87
2023-04-26T13:28:36.376Z,1.75
2023-04-26T13:31:03.339Z,1.50
2023-04-26T13:33:30.554Z,1.77
2023-04-26T13:35:57.451Z,1.60
2023-04-26T13:38:25.016Z,1.70
2023-04-26T13:40:53.762Z,1.75
2023-04-26T13:43:20.701Z,1.77
2023-04-26T13:45:47.789Z,1.58
2023-04-26T13:48:14.960Z,1.70
2023-04-26T13:50:41.992Z,2.20
2023-04-26T13:53:08.796Z,2.17
2023-04-26T13:55:35.763Z,1.88
2023-04-26T13:58:02.724Z,2.10
2023-04-26T14:00:29.589Z,2.28
2023-04-26T14:02:56.844Z,1.90
2023-04-26T14:05:24.108Z,2.15
2023-04-26T14:07:52.424Z,1.92
2023-04-26T14:10:21.372Z,1.90
2023-04-26T14:12:48.444Z,1.90
2023-04-26T14:15:15.658Z,2.30
2023-04-26T14:17:42.915Z,2.00
2023-04-26T14:20:10.545Z,1.90
2023-04-26T14:22:37.809Z,1.97
2023-04-26T14:25:05.373Z,1.52
2023-04-26T14:27:32.629Z,1.60
2023-04-26T14:29:59.447Z,1.77
2023-04-26T14:32:27.017Z,1.65
2023-04-26T14:34:53.913Z,1.73
2023-04-26T14:37:22.671Z,2.00
2023-04-26T14:39:50.780Z,1.65
2023-04-26T14:42:17.809Z,1.60
2023-04-26T14:44:46.501Z,1.80
2023-04-26T14:47:13.749Z,1.80
2023-04-26T14:49:41.215Z,1.63
2023-04-26T14:52:08.196Z,1.92
2023-04-26T14:54:39.629Z,1.77
2023-04-26T14:57:06.889Z,1.50
2023-04-26T14:59:33.992Z,1.90
2023-04-26T15:02:01.124Z,1.55
2023-04-26T15:04:28.857Z,2.08
2023-04-26T15:06:56.916Z,1.67
2023-04-26T15:09:23.950Z,1.83
2023-04-26T15:11:50.903Z,1.70
2023-04-26T15:14:17.702Z,2.30
2023-04-26T15:16:45.309Z,1.95
2023-04-26T15:19:12.184Z,2.50
2023-04-26T15:21:39.106Z,2.80
2023-04-26T15:24:07.742Z,2.07
2023-04-26T15:26:34.788Z,1.98
2023-04-26T15:29:02.077Z,1.98
2023-04-26T15:31:29.190Z,1.83
2023-04-26T15:33:58.874Z,2.20
2023-04-26T15:36:25.991Z,2.30
2023-04-26T15:38:52.966Z,2.15
2023-04-26T15:41:20.505Z,2.00
2023-04-26T15:43:47.406Z,2.13
2023-04-26T15:46:15.141Z,2.22
2023-04-26T15:48:42.174Z,2.10
2023-04-26T15:51:08.993Z,2.33
2023-04-26T15:53:39.259Z,2.13
2023-04-26T15:56:17.676Z,2.22
2023-04-26T15:58:45.464Z,2.30
2023-04-26T16:01:12.580Z,2.03
2023-04-26T16:03:40.208Z,1.88
2023-04-26T16:06:08.630Z,2.13
2023-04-26T16:08:40.302Z,2.08
2023-04-26T16:11:07.548Z,2.15
2023-04-26T16:13:34.642Z,1.98
2023-04-26T16:16:01.549Z,2.00
2023-04-26T16:18:28.659Z,1.80
2023-04-26T16:21:08.270Z,2.03
2023-04-26T16:23:35.735Z,1.65
2023-04-26T16:26:03.385Z,1.83
2023-04-26T16:28:30.420Z,2.03
2023-04-26T16:30:57.507Z,2.00
2023-04-26T16:33:24.847Z,2.25
2023-04-26T16:35:52.877Z,1.80
2023-04-26T16:38:20.017Z,2.30
2023-04-26T16:40:58.025Z,1.63
2023-04-26T16:43:27.028Z,1.50
2023-04-26T16:46:04.412Z,1.60
2023-04-26T16:48:32.844Z,1.45
2023-04-26T16:51:07.068Z,1.55
2023-04-26T16:53:35.975Z,1.40
2023-04-26T16:56:03.193Z,1.50
2023-04-26T16:58:30.120Z,1.50
2023-04-26T17:00:56.961Z,1.67
2023-04-26T17:03:24.768Z,1.60
2023-04-26T17:05:52.099Z,1.65
2023-04-26T17:08:19.308Z,1.40
2023-04-26T17:10:46.832Z,1.40
2023-04-26T17:13:13.792Z,1.58
2023-04-26T17:15:42.375Z,1.40
2023-04-26T17:18:09.549Z,1.70
2023-04-26T17:20:36.785Z,1.48
2023-04-26T17:23:08.612Z,1.40
2023-04-26T17:25:35.744Z,1.98
2023-04-26T17:28:03.451Z,1.13
2023-04-26T17:30:30.555Z,1.60
2023-04-26T17:32:57.430Z,1.58
2023-04-26T17:35:24.653Z,1.70
2023-04-26T17:37:51.652Z,1.90
2023-04-26T17:40:19.055Z,1.48
2023-04-26T17:42:46.545Z,1.45
2023-04-26T17:45:14.379Z,1.70
2023-04-26T17:47:45.626Z,1.50
2023-04-26T17:50:12.615Z,1.40
2023-04-26T17:52:39.597Z,1.52
2023-04-26T17:55:09.440Z,1.90
2023-04-26T17:57:37.017Z,1.70
2023-04-26T18:00:04.556Z,1.98
2023-04-26T18:02:35.268Z,1.88
2023-04-26T18:05:03.620Z,1.80
2023-04-26T18:07:30.441Z,1.70
2023-04-26T18:09:57.240Z,1.70
2023-04-26T18:12:25.341Z,1.80
2023-04-26T18:14:52.278Z,1.70
2023-04-26T18:17:19.608Z,1.60
2023-04-26T18:19:46.644Z,1.60
2023-04-26T18:22:13.613Z,2.00
2023-04-26T18:24:40.452Z,2.03
2023-04-26T18:27:07.372Z,2.00
2023-04-26T18:29:34.323Z,1.93
2023-04-26T18:32:01.390Z,2.30
2023-04-26T18:34:28.349Z,2.42
2023-04-26T18:36:55.891Z,1.90
2023-04-26T18:39:22.859Z,2.28
2023-04-26T18:41:50.974Z,2.03
2023-04-26T18:44:18.509Z,2.15
2023-04-26T18:46:45.818Z,2.05
2023-04-26T18:49:12.796Z,2.00
2023-04-26T18:51:39.632Z,2.20
2023-04-26T18:54:06.733Z,2.10
2023-04-26T18:56:33.728Z,2.58
2023-04-26T18:59:00.725Z,2.00
2023-04-26T19:01:27.709Z,2.10
2023-04-26T19:03:55.569Z,1.97
2023-04-26T19:06:22.610Z,1.80
2023-04-26T19:08:49.473Z,2.03
2023-04-26T19:11:16.254Z,2.30
2023-04-26T19:13:43.468Z,2.20
2023-04-26T19:16:10.843Z,2.00
2023-04-26T19:18:38.012Z,2.10
2023-04-26T19:21:06.327Z,2.22
2023-04-26T19:23:33.350Z,2.08
2023-04-26T19:26:05.681Z,2.10
2023-04-26T19:28:32.742Z,2.50
2023-04-26T19:31:00.222Z,2.20
2023-04-26T19:33:27.813Z,2.15
2023-04-26T19:35:56.460Z,2.42
2023-04-26T19:38:24.337Z,2.30
2023-04-26T19:40:51.998Z,2.70
2023-04-26T19:43:19.090Z,2.60
2023-04-26T19:45:46.399Z,2.40
2023-04-26T19:48:13.376Z,2.40
2023-04-26T19:50:45.579Z,2.90
2023-04-26T19:53:14.287Z,2.60
2023-04-26T19:55:42.441Z,2.60
2023-04-26T19:58:10.931Z,2.83
2023-04-26T20:00:41.460Z,3.60
2023-04-26T20:03:08.556Z,2.83
2023-04-26T20:05:35.708Z,2.50
2023-04-26T20:08:02.786Z,2.70
2023-04-26T20:10:36.634Z,2.70
2023-04-26T20:13:03.741Z,2.55
2023-04-26T20:15:32.994Z,2.78
2023-04-26T20:18:02.330Z,2.42
2023-04-26T20:20:29.275Z,2.70
2023-04-26T20:22:56.256Z,2.65
2023-04-26T20:25:23.204Z,2.80
2023-04-26T20:27:50.461Z,3.00
2023-04-26T20:30:17.379Z,2.78
2023-04-26T20:32:44.400Z,2.90
2023-04-26T20:35:13.581Z,2.85
2023-04-26T20:37:40.667Z,3.00
2023-04-26T20:40:08.420Z,2.97
2023-04-26T20:42:35.477Z,2.90
2023-04-26T20:45:03.774Z,3.00
2023-04-26T20:47:31.288Z,3.40
2023-04-26T20:49:58.189Z,3.25
2023-04-26T20:52:25.066Z,3.42
2023-04-26T20:54:52.089Z,3.30
2023-04-26T20:57:19.085Z,3.42
2023-04-26T20:59:46.310Z,3.40
2023-04-26T21:02:13.232Z,3.10
2023-04-26T21:04:42.566Z,3.42
2023-04-26T21:07:10.455Z,3.30
2023-04-26T21:09:37.746Z,3.50
2023-04-26T21:12:04.996Z,3.35
2023-04-26T21:14:31.826Z,3.20
2023-04-26T21:17:01.159Z,3.15
2023-04-26T21:19:28.165Z,3.38
2023-04-26T21:21:55.092Z,3.40
2023-04-26T21:24:22.028Z,3.40
2023-04-26T21:26:48.864Z,3.88
2023-04-26T21:29:16.452Z,3.72
2023-04-26T21:31:43.546Z,3.70
2023-04-26T21:34:10.785Z,3.70
2023-04-26T21:36:37.753Z,3.70
2023-04-26T21:39:04.686Z,3.75
2023-04-26T21:41:31.703Z,3.60
2023-04-26T21:43:58.744Z,3.50
2023-04-26T21:46:26.315Z,3.65
2023-04-26T21:48:53.278Z,4.00
2023-04-26T21:51:20.127Z,3.70
2023-04-26T21:53:47.015Z,3.95
2023-04-26T21:56:14.885Z,3.90
2023-04-26T21:58:42.580Z,3.70
2023-04-26T22:01:13.857Z,3.63
2023-04-26T22:03:41.277Z,3.83
2023-04-26T22:06:09.367Z,3.55
2023-04-26T22:08:36.278Z,4.40
2023-04-26T22:11:03.250Z,4.07
2023-04-26T22:13:31.264Z,3.72
2023-04-26T22:15:58.573Z,4.00
2023-04-26T22:18:26.415Z,4.72
2023-04-26T22:20:53.696Z,4.45
2023-04-26T22:23:20.924Z,4.50
2023-04-26T22:25:47.722Z,4.10
2023-04-26T22:28:15.164Z,4.60
2023-04-26T22:30:42.058Z,3.97
2023-04-26T22:33:10.994Z,4.10
2023-04-26T22:35:38.376Z,4.35
2023-04-26T22:38:05.387Z,4.33
2023-04-26T22:40:32.700Z,4.50
2023-04-26T22:42:59.554Z,4.40
2023-04-26T22:45:26.617Z,3.92
2023-04-26T22:47:53.746Z,4.15
2023-04-26T22:50:21.085Z,4.22
2023-04-26T22:52:48.016Z,4.30
2023-04-26T22:55:14.940Z,4.25
2023-04-26T22:57:41.884Z,4.20
2023-04-26T23:00:10.262Z,4.10
2023-04-26T23:02:37.251Z,3.83
2023-04-26T23:05:05.415Z,4.30
2023-04-26T23:07:33.616Z,4.13
2023-04-26T23:10:00.630Z,4.13
2023-04-26T23:12:27.778Z,4.63
2023-04-26T23:15:00.849Z,4.35
2023-04-26T23:17:28.034Z,4.30
2023-04-26T23:19:54.914Z,5.47
2023-04-26T23:22:21.934Z,4.60
2023-04-26T23:24:48.965Z,4.63
2023-04-26T23:27:15.780Z,4.72
2023-04-26T23:29:42.832Z,5.10
2023-04-26T23:32:09.605Z,4.70
2023-04-26T23:34:36.449Z,4.88
2023-04-26T23:37:07.055Z,4.72
2023-04-26T23:39:36.037Z,5.07
2023-04-26T23:42:03.811Z,4.65
2023-04-26T23:44:30.878Z,4.93
2023-04-26T23:46:57.729Z,4.90
2023-04-26T23:49:24.651Z,5.10
2023-04-26T23:51:51.852Z,4.90
2023-04-26T23:54:18.755Z,5.30
2023-04-26T23:56:45.849Z,5.35
2023-04-26T23:59:13.054Z,4.82
